createdAt,value
2023-03-18T00:01:10.497Z,13.20
2023-03-18T00:03:39.256Z,13.20
2023-03-18T00:06:10.338Z,13.20
2023-03-18T00:08:39.444Z,13.20
2023-03-18T00:11:08.242Z,13.20
2023-03-18T00:13:36.788Z,13.20
2023-03-18T00:16:07.415Z,13.20
2023-03-18T00:18:37.077Z,13.20
2023-03-18T00:21:06.130Z,13.20
2023-03-18T00:23:35.487Z,13.20
2023-03-18T00:26:03.916Z,13.20
2023-03-18T00:28:32.745Z,13.20
2023-03-18T00:31:08.561Z,13.20
2023-03-18T00:33:40.157Z,13.20
2023-03-18T00:36:10.197Z,13.20
2023-03-18T00:38:38.562Z,13.20
2023-03-18T00:41:12.094Z,13.20
2023-03-18T00:43:47.316Z,13.20
2023-03-18T00:46:17.873Z,13.20
2023-03-18T00:48:48.438Z,13.20
2023-03-18T00:51:17.726Z,13.30
2023-03-18T00:53:47.538Z,13.20
2023-03-18T00:56:18.182Z,13.20
2023-03-18T00:58:47.022Z,13.20
2023-03-18T01:01:15.687Z,13.20
2023-03-18T01:03:44.780Z,13.10
2023-03-18T01:06:20.086Z,13.10
2023-03-18T01:08:48.283Z,13.10
2023-03-18T01:11:17.199Z,13.10
2023-03-18T01:13:46.071Z,13.10
2023-03-18T01:16:14.534Z,13.10
2023-03-18T01:18:43.146Z,13.10
2023-03-18T01:21:13.536Z,13.10
2023-03-18T01:23:42.409Z,13.10
2023-03-18T01:26:10.905Z,13.10
2023-03-18T01:28:39.051Z,13.10
2023-03-18T01:31:08.180Z,13.10
2023-03-18T01:33:36.852Z,13.00
2023-03-18T01:36:05.542Z,13.00
2023-03-18T01:38:35.143Z,13.00
2023-03-18T01:41:03.831Z,12.90
2023-03-18T01:43:34.972Z,12.90
2023-03-18T01:46:19.451Z,12.90
2023-03-18T01:48:48.110Z,12.90
2023-03-18T01:51:16.570Z,12.90
2023-03-18T01:53:48.716Z,12.80
2023-03-18T01:56:18.115Z,12.80
2023-03-18T01:58:48.875Z,12.80
2023-03-18T02:01:22.909Z,12.80
2023-03-18T02:03:53.236Z,12.80
2023-03-18T02:06:21.503Z,12.80
2023-03-18T02:08:51.213Z,12.80
2023-03-18T02:11:19.652Z,12.80
2023-03-18T02:13:48.289Z,12.80
2023-03-18T02:16:21.660Z,12.80
2023-03-18T02:18:52.943Z,12.80
2023-03-18T02:21:37.506Z,12.80
2023-03-18T02:24:17.448Z,12.80
2023-03-18T02:26:51.866Z,12.80
2023-03-18T02:29:23.000Z,12.70
2023-03-18T02:31:51.832Z,12.70
2023-03-18T02:34:20.902Z,12.70
2023-03-18T02:36:49.179Z,12.70
2023-03-18T02:39:17.585Z,12.70
2023-03-18T02:41:46.395Z,12.60
2023-03-18T02:44:14.598Z,12.60
2023-03-18T02:46:54.036Z,12.60
2023-03-18T02:49:23.499Z,12.60
2023-03-18T02:51:52.684Z,12.60
2023-03-18T02:54:22.835Z,12.60
2023-03-18T02:56:51.997Z,12.50
2023-03-18T02:59:21.686Z,12.50
2023-03-18T03:01:53.157Z,12.50
2023-03-18T03:04:24.624Z,12.50
2023-03-18T03:06:53.304Z,12.50
2023-03-18T03:09:22.684Z,12.50
2023-03-18T03:11:51.218Z,12.40
2023-03-18T03:14:19.594Z,12.40
2023-03-18T03:16:48.543Z,12.40
2023-03-18T03:19:18.202Z,12.30
2023-03-18T03:21:46.384Z,12.30
2023-03-18T03:24:14.915Z,12.30
2023-03-18T03:26:43.696Z,12.20
2023-03-18T03:29:12.941Z,12.20
2023-03-18T03:31:41.114Z,12.10
2023-03-18T03:34:09.434Z,12.10
2023-03-18T03:36:39.692Z,12.10
2023-03-18T03:39:07.943Z,12.00
2023-03-18T03:41:36.125Z,12.00
2023-03-18T03:44:04.831Z,12.00
2023-03-18T03:46:33.329Z,12.00
2023-03-18T03:49:01.516Z,12.00
2023-03-18T03:51:29.720Z,12.00
2023-03-18T03:53:59.316Z,12.00
2023-03-18T03:56:28.348Z,12.00
2023-03-18T03:58:56.513Z,12.00
2023-03-18T04:01:24.982Z,12.00
2023-03-18T04:03:53.670Z,12.00
2023-03-18T04:06:21.986Z,11.90
2023-03-18T04:08:50.268Z,12.00
2023-03-18T04:11:20.468Z,12.00
2023-03-18T04:13:48.902Z,12.00
2023-03-18T04:16:17.257Z,12.00
2023-03-18T04:18:45.643Z,12.00
2023-03-18T04:21:14.901Z,12.00
2023-03-18T04:23:43.280Z,12.00
2023-03-18T04:26:13.124Z,12.00
2023-03-18T04:28:42.797Z,12.00
2023-03-18T04:31:11.204Z,12.00
2023-03-18T04:33:39.991Z,12.00
2023-03-18T04:36:09.367Z,12.00
2023-03-18T04:38:37.657Z,12.00
2023-03-18T04:41:06.749Z,12.00
2023-03-18T04:43:35.151Z,12.00
2023-03-18T04:46:04.804Z,12.00
2023-03-18T04:48:32.992Z,12.00
2023-03-18T04:51:01.134Z,11.90
2023-03-18T04:53:29.308Z,11.90
2023-03-18T04:55:57.565Z,11.80
2023-03-18T04:58:26.187Z,11.90
2023-03-18T05:00:54.742Z,11.90
2023-03-18T05:03:24.479Z,11.90
2023-03-18T05:05:52.847Z,11.80
2023-03-18T05:08:21.326Z,11.80
2023-03-18T05:10:51.050Z,11.80
2023-03-18T05:13:19.364Z,11.80
2023-03-18T05:15:47.714Z,11.90
2023-03-18T05:18:16.405Z,11.90
2023-03-18T05:20:46.010Z,11.90
2023-03-18T05:23:14.206Z,11.90
2023-03-18T05:25:42.780Z,11.90
2023-03-18T05:28:11.449Z,11.90
2023-03-18T05:30:40.480Z,11.90
2023-03-18T05:33:08.970Z,11.90
2023-03-18T05:35:37.316Z,11.90
2023-03-18T05:38:08.112Z,11.90
2023-03-18T05:40:36.532Z,11.90
2023-03-18T05:43:05.239Z,12.00
2023-03-18T05:45:33.777Z,12.00
2023-03-18T05:48:02.278Z,12.00
2023-03-18T05:50:31.127Z,12.00
2023-03-18T05:52:59.357Z,12.10
2023-03-18T05:55:29.489Z,12.10
2023-03-18T05:57:59.047Z,12.10
2023-03-18T06:00:28.774Z,12.10
2023-03-18T06:02:58.358Z,12.10
2023-03-18T06:05:27.115Z,12.10
2023-03-18T06:07:55.959Z,12.10
2023-03-18T06:10:25.595Z,12.10
2023-03-18T06:12:56.462Z,12.10
2023-03-18T06:15:25.750Z,12.10
2023-03-18T06:17:53.999Z,12.20
2023-03-18T06:20:23.414Z,12.20
2023-03-18T06:22:51.891Z,12.20
2023-03-18T06:25:21.657Z,12.20
2023-03-18T06:27:50.058Z,12.20
2023-03-18T06:30:19.971Z,12.20
2023-03-18T06:32:48.306Z,12.20
2023-03-18T06:35:17.120Z,12.20
2023-03-18T06:37:45.293Z,12.10
2023-03-18T06:40:13.789Z,12.10
2023-03-18T06:42:42.304Z,12.10
2023-03-18T06:45:11.336Z,12.00
2023-03-18T06:47:41.156Z,12.00
2023-03-18T06:50:10.406Z,12.00
2023-03-18T06:52:38.687Z,12.00
2023-03-18T06:55:07.960Z,11.90
2023-03-18T06:57:36.204Z,11.90
2023-03-18T07:00:05.742Z,11.90
2023-03-18T07:02:33.940Z,11.90
2023-03-18T07:05:04.545Z,12.00
2023-03-18T07:07:32.943Z,12.00
2023-03-18T07:10:01.180Z,12.00
2023-03-18T07:12:30.087Z,12.00
2023-03-18T07:14:58.440Z,12.10
2023-03-18T07:17:26.898Z,12.20
2023-03-18T07:19:55.057Z,12.10
2023-03-18T07:22:24.831Z,12.20
2023-03-18T07:24:53.715Z,12.30
2023-03-18T07:27:21.931Z,12.30
2023-03-18T07:29:50.274Z,12.40
2023-03-18T07:32:19.845Z,12.50
2023-03-18T07:34:48.999Z,12.50
2023-03-18T07:37:18.061Z,12.60
2023-03-18T07:39:47.609Z,12.60
2023-03-18T07:42:15.809Z,12.70
2023-03-18T07:44:43.975Z,12.80
2023-03-18T07:47:12.230Z,12.80
2023-03-18T07:49:41.599Z,12.90
2023-03-18T07:52:10.497Z,13.00
2023-03-18T07:54:38.655Z,13.10
2023-03-18T07:57:08.316Z,13.10
2023-03-18T07:59:36.712Z,13.10
2023-03-18T08:02:08.255Z,13.20
2023-03-18T08:04:36.739Z,13.30
2023-03-18T08:07:05.012Z,13.30
2023-03-18T08:09:33.162Z,13.40
2023-03-18T08:12:01.381Z,13.50
2023-03-18T08:14:31.254Z,13.50
2023-03-18T08:16:59.449Z,13.60
2023-03-18T08:19:28.237Z,13.70
2023-03-18T08:21:57.546Z,13.70
2023-03-18T08:24:25.818Z,13.70
2023-03-18T08:26:54.017Z,13.80
2023-03-18T08:29:22.160Z,13.80
2023-03-18T08:31:51.841Z,13.90
2023-03-18T08:34:20.115Z,14.00
2023-03-18T08:36:48.299Z,14.00
2023-03-18T08:39:16.964Z,14.10
2023-03-18T08:41:45.912Z,14.10
2023-03-18T08:44:14.110Z,14.20
2023-03-18T08:46:42.664Z,14.30
2023-03-18T08:49:14.059Z,14.30
2023-03-18T08:51:42.242Z,14.40
2023-03-18T08:54:10.465Z,14.50
2023-03-18T08:56:38.674Z,14.60
2023-03-18T08:59:07.101Z,14.60
2023-03-18T09:01:35.356Z,14.70
2023-03-18T09:04:03.771Z,14.80
2023-03-18T09:06:33.308Z,14.80
2023-03-18T09:09:01.466Z,14.90
2023-03-18T09:11:29.783Z,14.90
2023-03-18T09:13:57.934Z,15.00
2023-03-18T09:16:26.382Z,15.00
2023-03-18T09:18:54.550Z,15.10
2023-03-18T09:21:22.783Z,15.20
2023-03-18T09:23:52.808Z,15.20
2023-03-18T09:26:21.128Z,15.30
2023-03-18T09:28:49.306Z,15.40
2023-03-18T09:31:18.074Z,15.40
2023-03-18T09:33:47.128Z,15.50
2023-03-18T09:36:15.647Z,15.60
2023-03-18T09:38:43.932Z,15.60
2023-03-18T09:41:25.347Z,15.70
2023-03-18T09:44:04.053Z,15.80
2023-03-18T09:46:44.863Z,15.90
2023-03-18T09:49:36.933Z,16.00
2023-03-18T09:52:16.655Z,16.10
2023-03-18T09:54:50.119Z,16.20
2023-03-18T09:57:23.990Z,16.20
2023-03-18T09:59:58.598Z,16.30
2023-03-18T10:02:33.505Z,16.40
2023-03-18T10:05:05.246Z,16.40
2023-03-18T10:07:39.532Z,16.40
2023-03-18T10:10:11.011Z,16.50
2023-03-18T10:12:45.772Z,16.50
2023-03-18T10:15:22.377Z,16.50
2023-03-18T10:17:56.307Z,16.60
2023-03-18T10:20:34.391Z,16.60
2023-03-18T10:23:18.381Z,16.60
2023-03-18T10:25:53.522Z,16.70
2023-03-18T10:29:00.449Z,16.70
2023-03-18T10:31:38.694Z,16.80
2023-03-18T10:34:11.604Z,16.80
2023-03-18T10:36:49.377Z,16.80
2023-03-18T10:39:20.358Z,16.90
2023-03-18T10:41:51.089Z,16.90
2023-03-18T10:44:23.730Z,16.90
2023-03-18T10:46:59.918Z,16.90
2023-03-18T10:49:32.868Z,17.00
2023-03-18T10:52:07.767Z,17.00
2023-03-18T10:54:40.825Z,17.00
2023-03-18T10:57:14.266Z,17.00
2023-03-18T10:59:44.715Z,17.00
2023-03-18T11:02:20.165Z,17.10
2023-03-18T11:04:51.868Z,17.10
2023-03-18T11:07:23.773Z,17.20
2023-03-18T11:09:51.952Z,17.20
2023-03-18T11:12:25.679Z,17.20
2023-03-18T11:14:54.883Z,17.20
2023-03-18T11:17:29.309Z,17.30
2023-03-18T11:20:08.066Z,17.30
2023-03-18T11:22:37.838Z,17.40
2023-03-18T11:25:15.017Z,17.40
2023-03-18T11:27:45.888Z,17.50
2023-03-18T11:30:33.687Z,17.60
2023-03-18T11:33:08.294Z,17.60
2023-03-18T11:35:41.887Z,17.70
2023-03-18T11:38:16.363Z,17.70
2023-03-18T11:40:44.850Z,17.80
2023-03-18T11:43:20.069Z,17.90
2023-03-18T11:45:53.263Z,17.90
2023-03-18T11:48:36.571Z,17.90
2023-03-18T11:51:27.081Z,18.00
2023-03-18T11:54:16.699Z,18.00
2023-03-18T11:56:48.497Z,18.00
2023-03-18T11:59:25.210Z,18.10
2023-03-18T12:02:04.848Z,18.10
2023-03-18T12:04:54.226Z,18.20
2023-03-18T12:07:50.666Z,18.30
2023-03-18T12:10:26.349Z,18.30
2023-03-18T12:13:06.650Z,18.30
2023-03-18T12:15:43.824Z,18.40
2023-03-18T12:18:24.348Z,18.40
2023-03-18T12:20:55.194Z,18.50
2023-03-18T12:23:38.675Z,18.50
2023-03-18T12:26:09.709Z,18.50
2023-03-18T12:28:48.378Z,18.60
2023-03-18T12:31:39.628Z,18.60
2023-03-18T12:34:17.336Z,18.60
2023-03-18T12:37:01.786Z,18.70
2023-03-18T12:40:06.262Z,18.90
2023-03-18T12:42:47.275Z,19.10
2023-03-18T12:45:20.750Z,19.10
2023-03-18T12:47:54.207Z,19.20
2023-03-18T12:50:27.268Z,19.20
2023-03-18T12:53:01.836Z,19.20
2023-03-18T12:55:32.628Z,19.10
2023-03-18T12:58:05.075Z,19.10
2023-03-18T13:00:37.206Z,19.00
2023-03-18T13:03:14.606Z,19.00
2023-03-18T13:05:47.274Z,19.00
2023-03-18T13:08:41.728Z,18.90
2023-03-18T13:11:16.790Z,18.90
2023-03-18T13:13:51.304Z,18.90
2023-03-18T13:16:23.385Z,18.90
2023-03-18T13:18:53.800Z,18.80
2023-03-18T13:21:24.828Z,18.80
2023-03-18T13:24:30.268Z,18.80
2023-03-18T13:27:15.267Z,18.70
2023-03-18T13:29:52.938Z,18.60
2023-03-18T13:32:41.317Z,18.60
2023-03-18T13:35:50.698Z,18.60
2023-03-18T13:38:39.266Z,18.50
2023-03-18T13:41:35.551Z,18.60
2023-03-18T13:44:11.146Z,18.60
2023-03-18T13:46:41.420Z,18.60
2023-03-18T13:49:18.897Z,18.60
2023-03-18T13:51:54.126Z,18.60
2023-03-18T13:54:22.458Z,18.60
2023-03-18T13:56:55.757Z,18.70
2023-03-18T13:59:46.943Z,18.70
2023-03-18T14:02:34.423Z,18.70
2023-03-18T14:05:04.106Z,18.80
2023-03-18T14:07:33.111Z,18.70
2023-03-18T14:10:19.853Z,18.80
2023-03-18T14:12:49.819Z,18.70
2023-03-18T14:15:38.907Z,18.70
2023-03-18T14:18:27.679Z,18.70
2023-03-18T14:21:01.422Z,18.70
2023-03-18T14:23:39.952Z,18.70
2023-03-18T14:26:20.723Z,18.70
2023-03-18T14:28:56.067Z,18.70
2023-03-18T14:31:43.039Z,18.70
2023-03-18T14:34:33.486Z,18.70
2023-03-18T14:37:21.248Z,18.70
2023-03-18T14:39:53.711Z,18.60
2023-03-18T14:42:31.606Z,18.70
2023-03-18T14:45:07.550Z,18.60
2023-03-18T14:47:44.705Z,18.60
2023-03-18T14:50:32.867Z,18.60
2023-03-18T14:53:06.789Z,18.70
2023-03-18T14:55:36.916Z,18.70
2023-03-18T14:58:05.502Z,18.70
2023-03-18T15:00:37.747Z,18.70
2023-03-18T15:03:09.176Z,18.70
2023-03-18T15:05:40.146Z,18.70
2023-03-18T15:08:11.782Z,18.70
2023-03-18T15:10:40.348Z,18.70
2023-03-18T15:13:13.476Z,18.70
2023-03-18T15:15:44.061Z,18.70
2023-03-18T15:18:22.484Z,18.70
2023-03-18T15:20:53.720Z,18.70
2023-03-18T15:23:29.163Z,18.70
2023-03-18T15:25:57.750Z,18.70
2023-03-18T15:28:29.659Z,18.70
2023-03-18T15:31:00.994Z,18.70
2023-03-18T15:33:32.343Z,18.70
2023-03-18T15:36:06.347Z,18.70
2023-03-18T15:38:35.054Z,18.60
2023-03-18T15:41:05.570Z,18.60
2023-03-18T15:43:40.092Z,18.60
2023-03-18T15:46:18.182Z,18.60
2023-03-18T15:48:54.589Z,18.60
2023-03-18T15:51:27.982Z,18.50
2023-03-18T15:53:57.808Z,18.60
2023-03-18T15:56:29.634Z,18.50
2023-03-18T15:59:06.368Z,18.50
2023-03-18T16:01:37.270Z,18.50
2023-03-18T16:04:08.429Z,18.50
2023-03-18T16:06:38.533Z,18.50
2023-03-18T16:09:15.910Z,18.50
2023-03-18T16:11:45.452Z,18.50
2023-03-18T16:14:17.452Z,18.40
2023-03-18T16:16:47.287Z,18.40
2023-03-18T16:19:25.157Z,18.40
2023-03-18T16:21:54.065Z,18.40
2023-03-18T16:24:22.435Z,18.40
2023-03-18T16:26:51.204Z,18.40
2023-03-18T16:29:25.650Z,18.40
2023-03-18T16:31:55.470Z,18.30
2023-03-18T16:34:23.835Z,18.40
2023-03-18T16:36:53.588Z,18.30
2023-03-18T16:39:25.109Z,18.30
2023-03-18T16:41:53.678Z,18.30
2023-03-18T16:44:23.839Z,18.30
2023-03-18T16:46:56.522Z,18.20
2023-03-18T16:49:26.309Z,18.20
2023-03-18T16:51:54.713Z,18.20
2023-03-18T16:54:24.991Z,18.20
2023-03-18T16:56:55.951Z,18.10
2023-03-18T16:59:25.046Z,18.10
2023-03-18T17:01:54.178Z,18.10
2023-03-18T17:04:28.720Z,18.10
2023-03-18T17:06:57.627Z,18.10
2023-03-18T17:09:26.816Z,18.10
2023-03-18T17:11:58.036Z,18.00
2023-03-18T17:14:32.629Z,18.00
2023-03-18T17:17:03.594Z,18.00
2023-03-18T17:19:33.353Z,18.00
2023-03-18T17:22:01.799Z,17.90
2023-03-18T17:24:30.174Z,17.90
2023-03-18T17:26:58.704Z,17.80
2023-03-18T17:29:29.529Z,17.80
2023-03-18T17:31:57.982Z,17.80
2023-03-18T17:34:26.760Z,17.80
2023-03-18T17:36:56.973Z,17.70
2023-03-18T17:39:25.168Z,17.70
2023-03-18T17:41:53.443Z,17.70
2023-03-18T17:44:29.630Z,17.60
2023-03-18T17:46:58.907Z,17.60
2023-03-18T17:49:28.403Z,17.50
2023-03-18T17:51:58.288Z,17.50
2023-03-18T17:54:27.410Z,17.40
2023-03-18T17:56:56.273Z,17.40
2023-03-18T17:59:24.587Z,17.30
2023-03-18T18:01:52.847Z,17.40
2023-03-18T18:04:24.762Z,17.30
2023-03-18T18:06:53.533Z,17.30
2023-03-18T18:09:23.539Z,17.30
2023-03-18T18:11:52.014Z,17.30
2023-03-18T18:14:23.768Z,17.20
2023-03-18T18:16:53.640Z,17.20
2023-03-18T18:19:22.891Z,17.10
2023-03-18T18:21:51.621Z,17.10
2023-03-18T18:24:27.022Z,17.10
2023-03-18T18:26:55.758Z,17.00
2023-03-18T18:29:25.529Z,17.00
2023-03-18T18:31:54.049Z,16.90
2023-03-18T18:34:22.540Z,16.80
2023-03-18T18:36:51.171Z,16.80
2023-03-18T18:39:19.669Z,16.70
2023-03-18T18:41:49.481Z,16.60
2023-03-18T18:44:18.379Z,16.60
2023-03-18T18:46:46.820Z,16.50
2023-03-18T18:49:22.721Z,16.50
2023-03-18T18:51:53.363Z,16.40
2023-03-18T18:54:22.100Z,16.40
2023-03-18T18:56:52.333Z,16.30
2023-03-18T18:59:26.887Z,16.30
2023-03-18T19:01:57.167Z,16.30
2023-03-18T19:04:25.730Z,16.30
2023-03-18T19:06:54.624Z,16.30
2023-03-18T19:09:25.394Z,16.20
2023-03-18T19:11:56.253Z,16.20
2023-03-18T19:14:26.121Z,16.20
2023-03-18T19:16:56.436Z,16.20
2023-03-18T19:19:28.323Z,16.20
2023-03-18T19:21:57.513Z,16.20
2023-03-18T19:24:28.768Z,16.20
2023-03-18T19:26:59.964Z,16.20
2023-03-18T19:29:28.364Z,16.20
2023-03-18T19:31:56.849Z,16.10
2023-03-18T19:34:26.951Z,16.10
2023-03-18T19:36:57.620Z,16.10
2023-03-18T19:39:27.990Z,16.10
2023-03-18T19:41:56.179Z,16.10
2023-03-18T19:44:27.191Z,16.10
2023-03-18T19:46:57.118Z,16.00
2023-03-18T19:49:27.433Z,16.00
2023-03-18T19:51:56.117Z,16.00
2023-03-18T19:54:28.328Z,16.00
2023-03-18T19:57:00.647Z,16.00
2023-03-18T19:59:38.267Z,16.00
2023-03-18T20:02:20.271Z,16.00
2023-03-18T20:04:49.509Z,16.00
2023-03-18T20:07:19.439Z,15.90
2023-03-18T20:09:48.055Z,15.90
2023-03-18T20:12:22.885Z,15.90
2023-03-18T20:14:52.864Z,15.80
2023-03-18T20:17:34.597Z,15.80
2023-03-18T20:20:03.013Z,15.70
2023-03-18T20:22:34.154Z,15.70
2023-03-18T20:25:02.391Z,15.60
2023-03-18T20:27:31.588Z,15.60
2023-03-18T20:30:01.705Z,15.60
2023-03-18T20:32:30.024Z,15.60
2023-03-18T20:34:58.258Z,15.50
2023-03-18T20:37:33.844Z,15.40
2023-03-18T20:40:02.848Z,15.40
2023-03-18T20:42:31.146Z,15.40
2023-03-18T20:45:00.917Z,15.40
2023-03-18T20:47:29.123Z,15.30
2023-03-18T20:49:57.317Z,15.20
2023-03-18T20:52:28.707Z,15.20
2023-03-18T20:54:57.674Z,15.10
2023-03-18T20:57:26.447Z,15.10
2023-03-18T20:59:54.866Z,15.00
2023-03-18T21:02:32.780Z,15.00
2023-03-18T21:05:02.411Z,14.90
2023-03-18T21:07:31.261Z,14.90
2023-03-18T21:09:59.990Z,14.90
2023-03-18T21:12:28.372Z,14.80
2023-03-18T21:14:56.739Z,14.70
2023-03-18T21:17:27.289Z,14.70
2023-03-18T21:20:11.066Z,14.70
2023-03-18T21:22:44.832Z,14.70
2023-03-18T21:25:18.602Z,14.70
2023-03-18T21:27:47.225Z,14.70
2023-03-18T21:30:16.640Z,14.60
2023-03-18T21:32:46.302Z,14.60
2023-03-18T21:35:20.786Z,14.60
2023-03-18T21:37:49.022Z,14.60
2023-03-18T21:40:19.692Z,14.60
2023-03-18T21:42:48.227Z,14.60
2023-03-18T21:45:18.856Z,14.50
2023-03-18T21:47:47.065Z,14.60
2023-03-18T21:50:25.305Z,14.50
2023-03-18T21:52:54.668Z,14.50
2023-03-18T21:55:23.747Z,14.50
2023-03-18T21:57:52.003Z,14.50
2023-03-18T22:00:22.412Z,14.50
2023-03-18T22:02:51.178Z,14.40
2023-03-18T22:05:21.793Z,14.50
2023-03-18T22:07:54.360Z,14.40
2023-03-18T22:10:24.281Z,14.40
2023-03-18T22:12:52.787Z,14.50
2023-03-18T22:15:36.098Z,14.40
2023-03-18T22:18:05.699Z,14.40
2023-03-18T22:20:35.209Z,14.40
2023-03-18T22:23:16.306Z,14.40
2023-03-18T22:25:45.863Z,14.40
2023-03-18T22:28:14.505Z,14.40
2023-03-18T22:30:44.449Z,14.40
2023-03-18T22:33:21.335Z,14.40
2023-03-18T22:35:49.592Z,14.40
2023-03-18T22:38:21.539Z,14.40
2023-03-18T22:40:50.631Z,14.40
2023-03-18T22:43:29.536Z,14.50
2023-03-18T22:45:58.388Z,14.50
2023-03-18T22:48:26.996Z,14.50
2023-03-18T22:50:55.413Z,14.40
2023-03-18T22:53:28.718Z,14.40
2023-03-18T22:55:57.848Z,14.40
2023-03-18T22:58:27.611Z,14.40
2023-03-18T23:00:57.433Z,14.40
2023-03-18T23:03:28.789Z,14.40
2023-03-18T23:05:58.744Z,14.50
2023-03-18T23:08:28.773Z,14.50
2023-03-18T23:10:59.948Z,14.50
2023-03-18T23:13:30.616Z,14.50
2023-03-18T23:15:59.224Z,14.50
2023-03-18T23:18:27.546Z,14.50
2023-03-18T23:20:55.844Z,14.40
2023-03-18T23:23:24.366Z,14.40
2023-03-18T23:25:53.991Z,14.40
2023-03-18T23:28:22.139Z,14.40
2023-03-18T23:30:52.556Z,14.40
2023-03-18T23:33:21.208Z,14.40
2023-03-18T23:35:49.687Z,14.40
2023-03-18T23:38:17.881Z,14.40
2023-03-18T23:40:46.186Z,14.40
2023-03-18T23:43:16.225Z,14.40
2023-03-18T23:45:44.524Z,14.40
2023-03-18T23:48:12.812Z,14.40
2023-03-18T23:50:41.057Z,14.40
2023-03-18T23:53:09.285Z,14.40
2023-03-18T23:55:37.443Z,14.40
2023-03-18T23:58:05.933Z,14.40
